GMME/RBA METAR and TAF weather

Enter ICAO airport designator
Station Type Date Time Source
GMME METAR 2022/11/27 08:30 UTC NOAA

GMME 270830Z 00000KT 5000 FEW010 11/11 Q1022 NOSIG


Station Type Date Time Source
GMME Decoded METAR 2022/11/27 08:30 UTC NOAA

Rabat-Sale, Morocco (GMME) 34-03N 006-46W 75M
Nov 27, 2022 - 03:30 AM EST / 2022.11.27 0830 UTC
Wind: Calm:0
Visibility: 3 mile(s):0
Sky conditions: mostly clear
Temperature: 51 F (11 C)
Dew Point: 51 F (11 C)
Relative Humidity: 100%
Pressure (altimeter): 30.18 in. Hg (1022 hPa)
ob: GMME 270830Z 00000KT 5000 FEW010 11/11 Q1022 NOSIG
cycle: 8

Station Type Date Time Source
GMME TAF 2022/11/27 06:18 UTC NOAA

TAF GMME 270500Z 2706/2812 16006KT 5000 SCT010
TEMPO 2712/2718 24010KT
TEMPO 2720/2808 2000 BR BKN006 PROB30
TEMPO 2722/2806 0500 FG
BECMG 2808/2810 36010KT 6000 SCT010 SCT016

Example: see airport list